Time;durP1;ratioP1;P1;durP2;ratioP2;P2;SDS_P1;SDS_P2;PMS_P1;PMS_P2;Temp;Humidity;BMP_temperature;BMP_pressure;BME280_temperature;BME280_humidity;BME280_pressure;Samples;Min_cycle;Max_cycle;Signal;HPM_P1;HPM_P2
2022/10/30 00:00:22;;;;;;;29.20;15.85;;;;;;;;;;6214138;22;20023;-88
2022/10/30 00:02:48;;;;;;;35.80;15.82;;;;;;;;;;6216675;22;20022;-88
2022/10/30 00:05:14;;;;;;;24.80;15.52;;;;;;;;;;6215624;22;20042;-90
2022/10/30 00:07:40;;;;;;;26.35;14.88;;;;;;;;;;6215377;22;20023;-90
2022/10/30 00:10:07;;;;;;;35.33;15.40;;;;;;;;;;6216892;22;20022;-90
2022/10/30 00:12:33;;;;;;;25.95;15.38;;;;;;;;;;6214251;22;20019;-88
2022/10/30 00:14:59;;;;;;;30.52;14.88;;;;;;;;;;6269139;22;20038;-91
2022/10/30 00:17:25;;;;;;;29.85;14.63;;;;;;;;;;6188688;22;20106;-92
2022/10/30 00:19:51;;;;;;;25.85;15.45;;;;;;;;;;6217653;22;20035;-88
2022/10/30 00:22:17;;;;;;;28.17;14.52;;;;;;;;;;6190593;22;20020;-89
2022/10/30 00:24:43;;;;;;;26.95;13.48;;;;;;;;;;6271031;22;20050;-90
2022/10/30 00:27:09;;;;;;;28.65;15.30;;;;;;;;;;6191618;22;20030;-88
2022/10/30 00:29:35;;;;;;;26.33;14.80;;;;;;;;;;6271040;22;20478;-88
2022/10/30 00:32:02;;;;;;;33.03;14.73;;;;;;;;;;6192979;22;20057;-89
2022/10/30 00:34:28;;;;;;;29.90;14.95;;;;;;;;;;6218608;22;20027;-88
2022/10/30 00:36:54;;;;;;;33.63;14.38;;;;;;;;;;6249971;22;20023;-88
2022/10/30 00:39:20;;;;;;;36.22;15.07;;;;;;;;;;6247677;22;20027;-88
2022/10/30 00:41:46;;;;;;;31.83;14.52;;;;;;;;;;6201459;22;20340;-88
2022/10/30 00:44:31;;;;;;;33.05;14.90;;;;;;;;;;6269268;22;20019;-88
2022/10/30 00:46:58;;;;;;;32.95;14.50;;;;;;;;;;6270988;22;20762;-88
2022/10/30 00:49:24;;;;;;;33.67;14.65;;;;;;;;;;6226267;22;20102;-88
2022/10/30 00:51:53;;;;;;;31.45;14.60;;;;;;;;;;6262446;22;20038;-89
2022/10/30 00:54:54;;;;;;;28.40;15.05;;;;;;;;;;6259310;22;20020;-90
2022/10/30 00:57:21;;;;;;;28.98;15.02;;;;;;;;;;6250548;22;20098;-89
2022/10/30 00:59:47;;;;;;;37.30;13.93;;;;;;;;;;6219980;22;20030;-90
2022/10/30 01:02:14;;;;;;;28.88;13.55;;;;;;;;;;6269405;22;20015;-89
2022/10/30 01:04:41;;;;;;;28.00;14.07;;;;;;;;;;6218875;22;20026;-90
2022/10/30 01:07:10;;;;;;;30.40;13.80;;;;;;;;;;6240696;22;20016;-91
2022/10/30 01:09:36;;;;;;;31.75;14.63;;;;;;;;;;6272442;22;20012;-88
2022/10/30 01:12:02;;;;;;;21.13;14.13;;;;;;;;;;6215449;22;20016;-88
2022/10/30 01:14:29;;;;;;;23.02;13.38;;;;;;;;;;6219596;22;20020;-89
2022/10/30 01:17:14;;;;;;;32.90;15.13;;;;;;;;;;6216689;22;20016;-89
2022/10/30 01:19:58;;;;;;;31.95;15.60;;;;;;;;;;6217491;22;20016;-88
2022/10/30 01:22:42;;;;;;;33.53;14.65;;;;;;;;;;6219507;22;20387;-89
2022/10/30 01:25:22;;;;;;;27.95;14.57;;;;;;;;;;6215538;22;20016;-88
2022/10/30 01:28:06;;;;;;;25.67;14.30;;;;;;;;;;6271163;22;20058;-88
2022/10/30 01:30:39;;;;;;;28.05;13.88;;;;;;;;;;6217034;22;20027;-89
2022/10/30 01:33:20;;;;;;;29.00;15.05;;;;;;;;;;6267771;22;20024;-90
2022/10/30 01:35:53;;;;;;;32.20;14.27;;;;;;;;;;6244735;22;20543;-89
2022/10/30 01:38:40;;;;;;;27.48;14.63;;;;;;;;;;6217610;22;20038;-88
2022/10/30 01:41:06;;;;;;;26.00;14.48;;;;;;;;;;6228310;22;20019;-88
2022/10/30 01:43:33;;;;;;;29.83;14.45;;;;;;;;;;6215528;22;20016;-89
2022/10/30 01:46:04;;;;;;;23.65;14.27;;;;;;;;;;6217055;22;20027;-88
2022/10/30 01:48:49;;;;;;;27.65;15.52;;;;;;;;;;6216503;22;20095;-89
2022/10/30 01:51:17;;;;;;;32.90;15.70;;;;;;;;;;6268936;22;20719;-89
2022/10/30 01:54:02;;;;;;;24.38;14.63;;;;;;;;;;6244090;22;20022;-89
2022/10/30 01:56:49;;;;;;;26.92;14.45;;;;;;;;;;6218151;22;20043;-90
2022/10/30 01:59:35;;;;;;;29.27;15.77;;;;;;;;;;6219528;22;20054;-88
2022/10/30 02:02:01;;;;;;;28.48;15.40;;;;;;;;;;6244484;22;20122;-90
2022/10/30 02:04:40;;;;;;;27.08;15.10;;;;;;;;;;6241576;22;20402;-89
2022/10/30 02:07:06;;;;;;;29.70;16.30;;;;;;;;;;6272437;22;20031;-89
2022/10/30 02:09:33;;;;;;;29.75;15.60;;;;;;;;;;6193546;22;20020;-90
2022/10/30 02:14:59;;;;;;;26.23;16.35;;;;;;;;;;6242508;22;20073;-90
2022/10/30 02:17:26;;;;;;;23.85;15.23;;;;;;;;;;6269425;22;20019;-90
2022/10/30 02:19:52;;;;;;;27.92;16.05;;;;;;;;;;6218620;22;20806;-88
2022/10/30 02:22:19;;;;;;;28.98;16.55;;;;;;;;;;6216231;22;20427;-90
2022/10/30 02:24:45;;;;;;;36.45;16.30;;;;;;;;;;6244910;22;20361;-89
2022/10/30 02:27:11;;;;;;;33.03;15.30;;;;;;;;;;6215292;22;20047;-89
2022/10/30 02:29:37;;;;;;;36.90;16.45;;;;;;;;;;6271454;22;20023;-89
2022/10/30 02:32:03;;;;;;;26.77;16.48;;;;;;;;;;6217298;22;20452;-89
2022/10/30 02:34:29;;;;;;;31.85;16.25;;;;;;;;;;6217039;22;20441;-90
2022/10/30 02:36:55;;;;;;;27.98;15.88;;;;;;;;;;6220920;22;20030;-87
2022/10/30 02:39:21;;;;;;;32.70;16.58;;;;;;;;;;6257693;22;20039;-87
2022/10/30 02:41:48;;;;;;;30.13;16.48;;;;;;;;;;6236137;22;20109;-87
2022/10/30 02:44:14;;;;;;;32.38;16.67;;;;;;;;;;6208097;22;20468;-88
2022/10/30 02:46:40;;;;;;;27.30;15.80;;;;;;;;;;6245170;22;20012;-87
2022/10/30 02:49:09;;;;;;;30.40;14.45;;;;;;;;;;6215809;22;20016;-89
2022/10/30 02:51:35;;;;;;;35.15;16.05;;;;;;;;;;6242808;22;20020;-86
2022/10/30 02:54:01;;;;;;;29.48;15.73;;;;;;;;;;6214533;22;20023;-88
2022/10/30 02:56:27;;;;;;;30.63;15.00;;;;;;;;;;6242446;22;20053;-87
2022/10/30 02:58:56;;;;;;;38.75;15.57;;;;;;;;;;6268302;22;20011;-88
2022/10/30 03:01:22;;;;;;;21.50;14.05;;;;;;;;;;6242138;22;20019;-87
2022/10/30 03:03:52;;;;;;;26.85;14.05;;;;;;;;;;6216332;22;20085;-90
2022/10/30 03:06:18;;;;;;;33.38;15.00;;;;;;;;;;6241499;22;20492;-88
2022/10/30 03:08:44;;;;;;;27.60;15.35;;;;;;;;;;6243001;22;20042;-86
2022/10/30 03:11:44;;;;;;;24.20;14.43;;;;;;;;;;6215244;22;20015;-87
2022/10/30 03:14:11;;;;;;;23.25;14.25;;;;;;;;;;6242774;22;20051;-87
2022/10/30 03:16:51;;;;;;;27.35;13.18;;;;;;;;;;6215480;22;20624;-88
2022/10/30 03:19:33;;;;;;;24.30;13.57;;;;;;;;;;6243099;22;20073;-88
2022/10/30 03:21:59;;;;;;;27.73;14.25;;;;;;;;;;6242421;22;20019;-88
2022/10/30 03:24:25;;;;;;;35.72;14.55;;;;;;;;;;6241905;22;20019;-86
2022/10/30 03:26:57;;;;;;;27.70;15.40;;;;;;;;;;6242531;22;20016;-86
2022/10/30 03:29:23;;;;;;;30.92;14.93;;;;;;;;;;6240804;22;20072;-86
2022/10/30 03:32:01;;;;;;;30.48;14.30;;;;;;;;;;6242275;22;20015;-86
2022/10/30 03:34:27;;;;;;;25.98;15.02;;;;;;;;;;6214321;22;20032;-86
2022/10/30 03:40:13;;;;;;;30.63;14.00;;;;;;;;;;6241785;22;20042;-87
2022/10/30 03:42:40;;;;;;;30.90;15.43;;;;;;;;;;6239316;22;20027;-86
2022/10/30 03:45:06;;;;;;;32.17;16.40;;;;;;;;;;6217761;22;20467;-85
2022/10/30 03:47:39;;;;;;;27.13;15.07;;;;;;;;;;6216808;22;20557;-88
2022/10/30 03:50:14;;;;;;;31.08;14.60;;;;;;;;;;6243176;22;20330;-86
2022/10/30 03:52:40;;;;;;;26.17;14.18;;;;;;;;;;6185832;23;20047;-87
2022/10/30 03:55:07;;;;;;;31.05;15.43;;;;;;;;;;6238712;23;20063;-86
2022/10/30 03:57:36;;;;;;;31.85;15.85;;;;;;;;;;6214209;23;20094;-86
2022/10/30 04:00:02;;;;;;;30.88;15.95;;;;;;;;;;6215794;23;20016;-86
2022/10/30 04:02:28;;;;;;;36.53;15.80;;;;;;;;;;6213570;23;20020;-86
2022/10/30 04:04:57;;;;;;;35.92;15.65;;;;;;;;;;6213569;23;20587;-87
2022/10/30 04:07:23;;;;;;;33.10;15.75;;;;;;;;;;6214259;23;20016;-86
2022/10/30 04:09:49;;;;;;;31.10;15.82;;;;;;;;;;6212499;23;20070;-87
2022/10/30 04:12:15;;;;;;;32.25;15.95;;;;;;;;;;6212507;23;20020;-88
2022/10/30 04:14:41;;;;;;;34.78;16.20;;;;;;;;;;6213055;23;20077;-86
2022/10/30 04:17:07;;;;;;;33.05;16.40;;;;;;;;;;6212464;23;20024;-85
2022/10/30 04:19:33;;;;;;;29.15;16.33;;;;;;;;;;6212780;23;20012;-86
2022/10/30 04:22:00;;;;;;;33.60;16.77;;;;;;;;;;6213354;23;20345;-84
2022/10/30 04:24:26;;;;;;;33.17;15.43;;;;;;;;;;6213751;23;20024;-85
2022/10/30 04:27:07;;;;;;;23.88;15.52;;;;;;;;;;6223040;23;20020;-90
2022/10/30 04:29:33;;;;;;;26.88;15.40;;;;;;;;;;6257448;23;20012;-87
2022/10/30 04:32:09;;;;;;;31.83;15.43;;;;;;;;;;6257768;23;20051;-88
2022/10/30 04:34:44;;;;;;;30.10;15.60;;;;;;;;;;6219437;23;20020;-89
2022/10/30 04:37:10;;;;;;;37.88;16.23;;;;;;;;;;6213050;23;20035;-87
2022/10/30 04:39:37;;;;;;;25.63;15.07;;;;;;;;;;6213216;23;20073;-86
2022/10/30 04:42:03;;;;;;;31.70;15.13;;;;;;;;;;6212007;23;20020;-87
2022/10/30 04:44:44;;;;;;;36.70;16.20;;;;;;;;;;6214279;23;20091;-91
2022/10/30 04:47:35;;;;;;;32.83;16.33;;;;;;;;;;6239496;23;20020;-88
2022/10/30 04:50:01;;;;;;;30.38;15.23;;;;;;;;;;6212722;23;20415;-86
2022/10/30 04:55:45;;;;;;;32.17;16.77;;;;;;;;;;6243316;22;20017;-87
2022/10/30 04:58:17;;;;;;;32.60;17.38;;;;;;;;;;6271349;22;20024;-88
2022/10/30 05:00:43;;;;;;;37.30;15.82;;;;;;;;;;6270707;22;20558;-86
2022/10/30 05:03:21;;;;;;;30.77;17.42;;;;;;;;;;6222268;22;20046;-86
2022/10/30 05:05:55;;;;;;;30.20;16.63;;;;;;;;;;6224834;22;20039;-89
2022/10/30 05:08:21;;;;;;;;;;;;;;;;;;6246205;22;20047;-87
2022/10/30 05:10:47;;;;;;;29.23;14.80;;;;;;;;;;6219373;22;19990;-87
2022/10/30 05:13:16;;;;;;;36.10;16.50;;;;;;;;;;6279660;22;20110;-90
2022/10/30 05:15:48;;;;;;;36.58;16.85;;;;;;;;;;6270527;22;20020;-87
2022/10/30 05:18:14;;;;;;;31.63;17.35;;;;;;;;;;6242555;22;20107;-87
2022/10/30 05:20:41;;;;;;;29.10;17.15;;;;;;;;;;6217423;22;20030;-87
2022/10/30 05:23:07;;;;;;;36.10;16.90;;;;;;;;;;6193712;22;20452;-85
2022/10/30 05:25:35;;;;;;;30.83;17.08;;;;;;;;;;6246807;22;20030;-86
2022/10/30 05:28:09;;;;;;;31.27;17.77;;;;;;;;;;6242510;22;20077;-89
2022/10/30 05:30:44;;;;;;;33.72;17.02;;;;;;;;;;6269465;22;20077;-87
2022/10/30 05:33:21;;;;;;;;;;;;;;;;;;;;;
2022/10/30 05:38:52;;;;;;;;;;;;;;;;;;6272119;22;20096;-87
2022/10/30 05:41:21;;;;;;;33.80;16.33;;;;;;;;;;6270850;22;20306;-87
2022/10/30 05:43:50;;;;;;;39.28;16.75;;;;;;;;;;6242884;22;20054;-87
2022/10/30 05:46:26;;;;;;;36.05;17.33;;;;;;;;;;6242215;22;20020;-87
2022/10/30 05:49:07;;;;;;;35.83;17.67;;;;;;;;;;6270008;22;20023;-88
2022/10/30 05:51:36;;;;;;;36.70;17.38;;;;;;;;;;6211222;23;20334;-87
2022/10/30 05:54:04;;;;;;;28.00;16.70;;;;;;;;;;6186674;23;20154;-89
2022/10/30 05:56:49;;;;;;;31.77;17.08;;;;;;;;;;6212776;23;20391;-89
2022/10/30 05:59:24;;;;;;;37.70;17.95;;;;;;;;;;6237924;23;20578;-89
2022/10/30 06:02:04;;;;;;;30.02;16.75;;;;;;;;;;6209974;23;20103;-88
2022/10/30 06:04:33;;;;;;;36.90;18.42;;;;;;;;;;6211436;23;20023;-89
2022/10/30 06:06:59;;;;;;;33.28;18.00;;;;;;;;;;6211698;23;20024;-87
2022/10/30 06:09:25;;;;;;;34.97;18.17;;;;;;;;;;6212839;23;20016;-87
2022/10/30 06:11:52;;;;;;;41.45;17.40;;;;;;;;;;6213158;23;20031;-87
2022/10/30 06:14:21;;;;;;;30.77;18.95;;;;;;;;;;6234759;22;20010;-89
2022/10/30 06:16:48;;;;;;;29.98;16.48;;;;;;;;;;6210915;22;20079;-87
2022/10/30 06:19:14;;;;;;;26.70;16.52;;;;;;;;;;6266590;22;20016;-88
2022/10/30 06:21:49;;;;;;;31.05;17.63;;;;;;;;;;6264443;22;20047;-89
2022/10/30 06:24:15;;;;;;;32.83;18.55;;;;;;;;;;6223492;22;20023;-87
2022/10/30 06:27:00;;;;;;;35.75;18.70;;;;;;;;;;6244600;22;20026;-90
2022/10/30 06:29:54;;;;;;;39.67;17.67;;;;;;;;;;6245739;22;20444;-88
2022/10/30 06:32:21;;;;;;;33.72;18.90;;;;;;;;;;6244837;22;20016;-88
2022/10/30 06:34:59;;;;;;;37.50;18.65;;;;;;;;;;6244453;22;20352;-87
2022/10/30 06:37:40;;;;;;;40.55;20.45;;;;;;;;;;6245642;22;20020;-90
2022/10/30 06:40:16;;;;;;;36.38;18.60;;;;;;;;;;6272020;22;20091;-88
2022/10/30 06:42:44;;;;;;;38.85;20.00;;;;;;;;;;6219412;22;20102;-87
2022/10/30 06:45:16;;;;;;;34.92;18.95;;;;;;;;;;6244359;22;20334;-90
2022/10/30 06:47:43;;;;;;;38.58;18.60;;;;;;;;;;6245838;22;20027;-88
2022/10/30 06:50:16;;;;;;;37.55;18.73;;;;;;;;;;6218957;22;20396;-86
2022/10/30 06:52:49;;;;;;;37.08;20.23;;;;;;;;;;6244995;22;20120;-87
2022/10/30 06:55:24;;;;;;;35.53;18.23;;;;;;;;;;6244409;22;20028;-90
2022/10/30 06:58:05;;;;;;;33.47;18.75;;;;;;;;;;6246860;22;20027;-89
2022/10/30 07:00:31;;;;;;;30.80;18.83;;;;;;;;;;6244469;22;20120;-90
2022/10/30 07:03:03;;;;;;;37.67;18.00;;;;;;;;;;6247293;22;20550;-89
2022/10/30 07:05:41;;;;;;;34.05;19.63;;;;;;;;;;6218844;22;20015;-88
2022/10/30 07:08:07;;;;;;;32.35;18.88;;;;;;;;;;6245181;22;20023;-87
2022/10/30 07:10:34;;;;;;;39.58;18.63;;;;;;;;;;6219185;22;20051;-88
2022/10/30 07:13:00;;;;;;;39.63;20.42;;;;;;;;;;6220067;22;20048;-89
2022/10/30 07:15:26;;;;;;;39.50;18.95;;;;;;;;;;6212241;23;20103;-88
2022/10/30 07:17:55;;;;;;;45.25;19.50;;;;;;;;;;6186917;23;20082;-90
2022/10/30 07:20:22;;;;;;;41.88;18.58;;;;;;;;;;6212702;23;20487;-89
2022/10/30 07:22:57;;;;;;;36.00;19.15;;;;;;;;;;6210521;23;20019;-88
2022/10/30 07:25:29;;;;;;;35.75;19.00;;;;;;;;;;6168447;23;20028;-88
2022/10/30 07:27:56;;;;;;;42.33;19.25;;;;;;;;;;6241584;23;20051;-90
2022/10/30 07:30:31;;;;;;;46.65;19.50;;;;;;;;;;6229943;23;20067;-91
2022/10/30 07:32:58;;;;;;;36.88;19.77;;;;;;;;;;6230573;23;20035;-90
2022/10/30 07:35:26;;;;;;;34.53;19.90;;;;;;;;;;6232396;23;20034;-89
2022/10/30 07:38:27;;;;;;;41.17;19.88;;;;;;;;;;6226170;23;20030;-89
2022/10/30 07:40:57;;;;;;;33.08;19.13;;;;;;;;;;6113320;23;20080;-91
2022/10/30 07:43:47;;;;;;;37.60;18.27;;;;;;;;;;6110835;23;20021;-89
2022/10/30 07:46:22;;;;;;;30.63;17.83;;;;;;;;;;6115551;23;20095;-90
2022/10/30 07:48:53;;;;;;;39.10;18.58;;;;;;;;;;6148027;23;20169;-90
2022/10/30 07:51:19;;;;;;;40.75;18.77;;;;;;;;;;6226957;23;20059;-90
2022/10/30 07:53:45;;;;;;;44.05;19.25;;;;;;;;;;6254053;23;20449;-88
2022/10/30 07:56:23;;;;;;;38.92;19.20;;;;;;;;;;6225930;23;20024;-91
2022/10/30 07:58:49;;;;;;;35.92;19.05;;;;;;;;;;6228240;23;20016;-90
2022/10/30 08:01:16;;;;;;;41.25;19.27;;;;;;;;;;6225366;23;20043;-90
2022/10/30 08:04:04;;;;;;;34.67;18.27;;;13.40;99.90;;;;;;6236170;22;20023;-91
2022/10/30 08:06:46;;;;;;;37.45;20.35;;;;;;;;;;6216489;22;20020;-90
2022/10/30 08:09:40;;;;;;;30.65;17.85;;;;;;;;;;6190189;23;20016;-90
2022/10/30 08:12:06;;;;;;;28.38;18.25;;;;;;;;;;6203305;23;20028;-88
2022/10/30 08:18:16;;;;;;;32.53;17.40;;;;;;;;;;6288625;22;20071;-90
2022/10/30 08:20:55;;;;;;;34.78;19.50;;;;;;;;;;6231815;22;20086;-89
2022/10/30 08:28:51;;;;;;;28.05;17.08;;;;;;;;;;6287250;22;20579;-89
2022/10/30 08:31:24;;;;;;;37.33;18.33;;;;;;;;;;6288585;22;20042;-89
2022/10/30 08:33:50;;;;;;;27.48;18.15;;;;;;;;;;6261768;22;20015;-87
2022/10/30 08:36:28;;;;;;;36.35;18.42;;;;;;;;;;6214660;23;20021;-88
2022/10/30 08:38:54;;;;;;;31.65;18.13;;;;;;;;;;6216724;23;20021;-87
2022/10/30 08:41:32;;;;;;;31.52;17.58;;;;;;;;;;6165834;23;20029;-87
2022/10/30 08:44:04;;;;;;;29.95;17.70;;;;;;;;;;6192965;23;20032;-89
2022/10/30 08:46:30;;;;;;;37.35;18.60;;;;;;;;;;6194093;23;20020;-87
2022/10/30 08:48:59;;;;;;;29.58;16.27;;;;;;;;;;6190341;23;20048;-87
2022/10/30 08:51:31;;;;;;;32.75;16.55;;;;;;;;;;6191850;23;20020;-88
2022/10/30 08:53:57;;;;;;;36.60;17.88;;;;;;;;;;6191904;23;20040;-87
2022/10/30 08:56:23;;;;;;;26.55;17.17;;;;;;;;;;6217593;23;20050;-88
2022/10/30 08:59:38;;;;;;;35.35;17.60;;;14.90;99.90;;;;;;6220017;23;20023;-89
2022/10/30 09:02:11;;;;;;;30.67;17.40;;;;;;;;;;6193887;23;20020;-87
2022/10/30 09:04:43;;;;;;;25.20;16.02;;;;;;;;;;6192340;23;20025;-87
2022/10/30 09:07:09;;;;;;;30.67;16.23;;;;;;;;;;6221224;22;20019;-87
2022/10/30 09:09:48;;;;;;;26.48;16.50;;;;;;;;;;6311371;22;20021;-87
2022/10/30 09:12:17;;;;;;;30.05;17.02;;;;;;;;;;6283195;22;20015;-88
2022/10/30 09:15:05;;;;;;;27.23;16.67;;;;;;;;;;6260390;22;20023;-87
2022/10/30 09:17:31;;;;;;;32.58;17.88;;;;;;;;;;6310013;22;20057;-88
2022/10/30 09:19:57;;;;;;;37.10;16.85;;;;;;;;;;6257160;22;20011;-88
2022/10/30 09:22:23;;;;;;;35.35;16.58;;;;;;;;;;6257932;22;20023;-89
2022/10/30 09:24:51;;;;;;;26.08;15.88;;;;;;;;;;6257028;22;20023;-87
2022/10/30 09:27:36;;;;;;;25.95;16.02;;;16.00;99.90;;;;;;6281778;22;20807;-88
2022/10/30 09:33:39;;;;;;;28.50;15.38;;;;;;;;;;6282916;22;20058;-88
2022/10/30 09:36:07;;;;;;;34.92;15.18;;;;;;;;;;6253805;22;20019;-87
2022/10/30 09:38:36;;;;;;;21.45;15.50;;;;;;;;;;6228711;22;20027;-87
2022/10/30 09:41:29;;;;;;;28.58;14.52;;;;;;;;;;6278438;22;20023;-89
2022/10/30 09:44:20;;;;;;;29.60;13.80;;;;;;;;;;6248745;22;20022;-88
2022/10/30 10:00:53;;;;;;;31.33;13.30;;;;;;;;;;5057641;28;20435;-86
2022/10/30 10:10:17;;;;;;;;;;;;;;;;;;;;;
2022/10/30 10:12:56;;;;;;;20.52;13.05;;;;;;;;;;5037608;28;20069;-89
2022/10/30 10:15:22;;;;;;;23.83;13.30;;;;;;;;;;4989633;28;20491;-89
2022/10/30 10:18:02;;;;;;;28.55;13.50;;;;;;;;;;5017460;28;20040;-85
2022/10/30 10:20:28;;;;;;;24.65;12.07;;;;;;;;;;5031457;28;20056;-88
2022/10/30 10:23:05;;;;;;;24.75;12.55;;;;;;;;;;5009314;28;20057;-87
2022/10/30 10:25:32;;;;;;;23.45;12.05;;;;;;;;;;5027093;28;20071;-89
2022/10/30 10:28:16;;;;;;;21.92;11.85;;;;;;;;;;5022774;28;20556;-89
2022/10/30 10:31:01;;;;;;;25.58;11.88;;;;;;;;;;5027871;28;20045;-89
2022/10/30 10:33:38;;;;;;;26.83;12.30;;;;;;;;;;5034413;28;20046;-91
2022/10/30 10:36:04;;;;;;;26.48;12.70;;;;;;;;;;5031701;28;20042;-91
2022/10/30 10:39:09;;;;;;;22.20;12.40;;;;;;;;;;5020699;28;20454;-94
2022/10/30 10:41:36;;;;;;;21.95;12.60;;;;;;;;;;5003283;28;20136;-91
2022/10/30 10:44:14;;;;;;;21.33;11.57;;;;;;;;;;5011231;28;20053;-92
2022/10/30 10:46:53;;;;;;;18.17;11.05;;;;;;;;;;5025078;28;20049;-90
2022/10/30 10:49:56;;;;;;;30.08;11.02;;;;;;;;;;5028451;28;20042;-91
2022/10/30 10:52:35;;;;;;;20.88;11.43;;;;;;;;;;5034541;28;20046;-93
2022/10/30 10:55:15;;;;;;;19.25;10.70;;;;;;;;;;5025186;28;20057;-91
2022/10/30 10:57:54;;;;;;;21.42;10.02;;;;;;;;;;5033133;28;20069;-93
2022/10/30 11:00:22;;;;;;;18.80;9.98;;;;;;;;;;5015699;28;20483;-93
2022/10/30 11:03:19;;;;;;;19.15;9.38;;;;;;;;;;5009883;28;20058;-94
2022/10/30 11:08:48;;;;;;;17.15;9.95;;;;;;;;;;5016653;28;20077;-93
2022/10/30 11:14:27;;;;;;;18.98;8.88;;;;;;;;;;5015243;28;20069;-92
2022/10/30 11:17:21;;;;;;;19.63;9.80;;;;;;;;;;5001946;28;20049;-92
2022/10/30 11:26:37;;;;;;;19.90;8.50;;;;;;;;;;5192834;23;20056;-91
2022/10/30 11:29:47;;;;;;;19.13;9.27;;;22.30;99.90;;;;;;5034039;23;20057;-92
2022/10/30 11:32:27;;;;;;;;;;;;;;;;;;;;;
2022/10/30 11:35:29;;;;;;;17.00;9.02;;;;;;;;;;4981064;28;20193;-90
2022/10/30 11:38:12;;;;;;;15.98;9.18;;;;;;;;;;4977926;28;20046;-89
2022/10/30 11:41:02;;;;;;;20.30;9.37;;;;;;;;;;4974893;28;20077;-88
2022/10/30 11:43:34;;;;;;;21.10;9.48;;;;;;;;;;4975569;28;20106;-93
2022/10/30 11:46:01;;;;;;;19.42;8.30;;;;;;;;;;4975286;28;20045;-90
2022/10/30 11:48:31;;;;;;;18.23;8.60;;;;;;;;;;4950879;28;20057;-89
2022/10/30 11:51:01;;;;;;;29.20;9.43;;;;;;;;;;4988796;28;20057;-89
2022/10/30 11:53:39;;;;;;;18.48;8.15;;;;;;;;;;4969266;28;20066;-89
2022/10/30 11:56:27;;;;;;;11.27;7.53;;;;;;;;;;4950537;28;20047;-89
2022/10/30 11:58:58;;;;;;;19.42;8.75;;;;;;;;;;4964012;28;20129;-90
2022/10/30 12:02:11;;;;;;;25.25;10.70;;;;;;;;;;4965380;28;20036;-90
2022/10/30 12:04:54;;;;;;;19.33;10.52;;;;;;;;;;4967126;28;20110;-91
2022/10/30 12:07:32;;;;;;;21.38;10.68;;;;;;;;;;4968243;28;20499;-90
2022/10/30 12:10:00;;;;;;;22.23;11.45;;;;;;;;;;4949437;28;20059;-88
2022/10/30 12:12:27;;;;;;;21.80;11.85;;;;;;;;;;4980016;28;20042;-89
2022/10/30 12:18:28;;;;;;;24.23;12.05;;;;;;;;;;4965856;28;20046;-89
2022/10/30 12:21:02;;;;;;;26.25;13.30;;;;;;;;;;4964939;28;20129;-87
2022/10/30 12:23:34;;;;;;;23.98;14.02;;;;;;;;;;4964684;28;20042;-88
2022/10/30 12:26:16;;;;;;;23.13;13.57;;;;;;;;;;4967880;28;20129;-90
2022/10/30 12:35:34;;;;;;;27.63;14.27;;;;;;;;;;4923452;28;20082;-89
2022/10/30 12:38:15;;;;;;;28.15;15.07;;;;;;;;;;4968865;28;20047;-91
2022/10/30 12:44:27;;;;;;;27.90;16.08;;;;;;;;;;4968896;28;20070;-91
2022/10/30 12:47:12;;;;;;;32.35;16.27;;;;;;;;;;4957779;28;20042;-90
2022/10/30 12:49:47;;;;;;;25.50;15.23;;;;;;;;;;4969770;28;20463;-89
2022/10/30 12:52:21;;;;;;;28.10;15.88;;;;;;;;;;4964840;28;20567;-90
2022/10/30 12:55:09;;;;;;;26.65;16.08;;;;;;;;;;4968675;28;20194;-88
2022/10/30 12:57:53;;;;;;;24.85;17.08;;;;;;;;;;4965877;28;20039;-88
2022/10/30 13:00:25;;;;;;;31.80;17.40;;;;;;;;;;4948609;28;20086;-92
2022/10/30 13:09:27;;;;;;;26.80;17.83;;;;;;;;;;4975648;28;20070;-88
2022/10/30 13:12:18;;;;;;;29.20;18.35;;;;;;;;;;4978620;23;20627;-90
2022/10/30 13:18:41;;;;;;;31.38;19.00;;;;;;;;;;4961669;28;20045;-90
2022/10/30 13:21:14;;;;;;;29.70;17.88;;;;;;;;;;4978404;28;20787;-89
2022/10/30 13:23:44;;;;;;;36.33;18.23;;;;;;;;;;4969691;28;20892;-87
2022/10/30 13:26:29;;;;;;;28.55;18.35;;;;;;;;;;4982197;28;20034;-88
2022/10/30 13:32:52;;;;;;;38.08;16.92;;;;;;;;;;4998032;28;20058;-91
2022/10/30 13:35:52;;;;;;;29.35;17.50;;;;;;;;;;4978846;28;20050;-90
2022/10/30 13:41:51;;;;;;;31.30;17.08;;;;;;;;;;4949221;28;20046;-89
2022/10/30 13:44:45;;;;;;;24.50;16.83;;;;;;;;;;4971512;28;20050;-90
2022/10/30 13:47:11;;;;;;;28.13;16.50;;;;;;;;;;4981648;28;20558;-89
2022/10/30 13:50:11;;;;;;;27.77;17.67;;;;;;;;;;4953543;28;20052;-89
2022/10/30 13:52:39;;;;;;;29.05;17.80;;;;;;;;;;4969991;28;20088;-88
2022/10/30 13:55:18;;;;;;;31.83;18.80;;;;;;;;;;4995608;28;20060;-88
2022/10/30 14:00:47;;;;;;;37.65;16.85;;;;;;;;;;5005760;28;20054;-89
2022/10/30 14:03:26;;;;;;;31.95;17.00;;;;;;;;;;4996096;28;20524;-89
2022/10/30 14:05:58;;;;;;;33.72;16.42;;;;;;;;;;4976264;28;20124;-89
2022/10/30 14:08:45;;;;;;;24.33;14.38;;;19.30;99.90;;;;;;4986801;28;20046;-90
2022/10/30 14:11:12;;;;;;;31.77;14.45;;;;;;;;;;4962593;28;20046;-91
2022/10/30 14:23:35;;;;;;;22.75;12.77;;;;;;;;;;4979860;28;20126;-94
2022/10/30 14:26:10;;;;;;;20.80;12.10;;;;;;;;;;4964636;28;20526;-89
2022/10/30 14:28:37;;;;;;;24.48;12.38;;;;;;;;;;4972829;28;20059;-91
2022/10/30 14:31:07;;;;;;;27.05;12.50;;;;;;;;;;4988589;28;20050;-93
2022/10/30 14:33:50;;;;;;;28.38;13.63;;;;;;;;;;4941852;28;20050;-91
2022/10/30 14:36:24;;;;;;;23.30;11.90;;;;;;;;;;4972218;28;20145;-91
2022/10/30 14:38:53;;;;;;;29.23;12.88;;;;;;;;;;4988173;28;20329;-90
2022/10/30 14:41:26;;;;;;;19.60;11.98;;;;;;;;;;4968964;28;20471;-91
2022/10/30 14:43:55;;;;;;;18.85;11.95;;;;;;;;;;4966956;28;20097;-91
2022/10/30 14:46:37;;;;;;;23.45;12.20;;;;;;;;;;4987919;28;20153;-91
2022/10/30 14:49:15;;;;;;;20.30;13.02;;;;;;;;;;4971672;28;20042;-90
2022/10/30 14:51:45;;;;;;;26.23;12.60;;;;;;;;;;4961732;28;20046;-90
2022/10/30 14:54:11;;;;;;;21.10;12.57;;;;;;;;;;4954374;28;20486;-88
2022/10/30 14:56:46;;;;;;;26.20;12.93;;;;;;;;;;4969530;28;20488;-87
2022/10/30 14:59:12;;;;;;;20.40;13.30;;;;;;;;;;4986067;28;20055;-89
2022/10/30 15:01:47;;;;;;;23.23;13.70;;;;;;;;;;4968973;28;20047;-88
2022/10/30 15:04:23;;;;;;;25.02;12.70;;;;;;;;;;4967910;28;20043;-90
2022/10/30 15:06:56;;;;;;;31.55;13.75;;;;;;;;;;4967423;28;20049;-89
2022/10/30 15:09:27;;;;;;;21.67;13.45;;;;;;;;;;4967943;28;20034;-89
2022/10/30 15:12:19;;;;;;;27.50;13.50;;;;;;;;;;4951944;28;20475;-88
2022/10/30 15:14:46;;;;;;;23.00;11.93;;;;;;;;;;4980766;28;20519;-87
2022/10/30 15:17:31;;;;;;;26.98;14.32;;;;;;;;;;4992618;28;20057;-86
2022/10/30 15:19:59;;;;;;;30.38;14.65;;;;;;;;;;4991228;28;20027;-88
2022/10/30 15:22:26;;;;;;;22.40;13.75;;;;;;;;;;5013203;28;21002;-87
2022/10/30 15:24:55;;;;;;;38.35;13.98;;;;;;;;;;4993574;28;20049;-88
2022/10/30 15:27:22;;;;;;;24.67;15.27;;;;;;;;;;4985564;28;20054;-88
2022/10/30 15:29:51;;;;;;;27.98;15.18;;;;;;;;;;4990389;28;20038;-85
2022/10/30 15:32:18;;;;;;;22.73;14.07;;;;;;;;;;4988641;28;20129;-88
2022/10/30 15:34:54;;;;;;;26.63;14.13;;;;;;;;;;4991441;28;20046;-87
2022/10/30 15:37:20;;;;;;;25.90;13.77;;;;;;;;;;4988727;28;20038;-86
2022/10/30 15:39:46;;;;;;;25.98;15.52;;;;;;;;;;4973381;28;20058;-85
2022/10/30 15:42:13;;;;;;;26.38;13.93;;;;;;;;;;4979850;28;20054;-86
2022/10/30 15:44:40;;;;;;;26.55;14.52;;;;;;;;;;4994637;28;20114;-85
2022/10/30 15:47:12;;;;;;;25.25;14.88;;;;;;;;;;4987068;28;20035;-87
2022/10/30 15:50:07;;;;;;;27.05;14.55;;;;;;;;;;5002828;28;20072;-84
2022/10/30 15:52:33;;;;;;;29.00;14.52;;;;;;;;;;5000550;28;20125;-87
2022/10/30 15:55:02;;;;;;;27.77;15.25;;;;;;;;;;4966938;28;20117;-86
2022/10/30 15:57:36;;;;;;;25.88;15.75;;;;;;;;;;4984532;28;20058;-86
2022/10/30 16:00:07;;;;;;;25.60;15.95;;;;;;;;;;4982219;28;20573;-86
2022/10/30 16:02:35;;;;;;;24.05;14.43;;;;;;;;;;4974434;28;20052;-86
2022/10/30 16:05:01;;;;;;;32.58;15.10;;;;;;;;;;4968893;28;20069;-85
2022/10/30 16:07:28;;;;;;;27.50;14.95;;;;;;;;;;4989832;28;20140;-86
2022/10/30 16:09:55;;;;;;;30.60;17.67;;;;;;;;;;4971049;28;20056;-86
2022/10/30 16:12:25;;;;;;;26.23;16.65;;;;;;;;;;5000884;28;20066;-85
2022/10/30 16:14:55;;;;;;;28.70;17.23;;;;;;;;;;5000657;28;20046;-88
2022/10/30 16:17:27;;;;;;;24.85;18.40;;;;;;;;;;5001410;28;20034;-85
2022/10/30 16:20:06;;;;;;;43.85;20.90;;;;;;;;;;4966866;28;20046;-86
2022/10/30 16:22:50;;;;;;;61.70;26.13;;;;;;;;;;4985294;28;20042;-86
2022/10/30 16:25:17;;;;;;;80.00;36.13;;;;;;;;;;4964847;28;20046;-86
2022/10/30 16:27:44;;;;;;;43.17;25.45;;;;;;;;;;4966178;28;20422;-85
2022/10/30 16:30:13;;;;;;;28.23;15.70;;;;;;;;;;4980957;28;20046;-87
2022/10/30 16:32:40;;;;;;;29.08;15.40;;;;;;;;;;4989801;28;20035;-86
2022/10/30 16:35:07;;;;;;;30.60;16.13;;;;;;;;;;4989489;28;20065;-86